Time;durP1;ratioP1;P1;durP2;ratioP2;P2;SDS_P1;SDS_P2;PMS_P1;PMS_P2;Temp;Humidity;BMP_temperature;BMP_pressure;BME280_temperature;BME280_humidity;BME280_pressure;Samples;Min_cycle;Max_cycle;Signal;HPM_P1;HPM_P2
2023/10/26 00:01:21;;;;;;;10.55;7.93;;;;;;;;;;5029294;28;20482;-80
2023/10/26 00:03:46;;;;;;;11.30;8.95;;;;;;;;;;5030328;28;20025;-81
2023/10/26 00:06:11;;;;;;;11.70;9.45;;;;;;;;;;5033311;28;20032;-80
2023/10/26 00:08:37;;;;;;;11.40;8.73;;;;;;;;;;5034431;28;20087;-82
2023/10/26 00:11:03;;;;;;;10.98;8.50;;;;;;;;;;5033938;28;20115;-80
2023/10/26 00:13:28;;;;;;;10.05;7.63;;;;;;;;;;5036339;28;20021;-82
2023/10/26 00:15:54;;;;;;;10.93;7.78;;;;;;;;;;5034206;28;20029;-80
2023/10/26 00:18:19;;;;;;;9.48;7.68;;;;;;;;;;5031457;28;20493;-82
2023/10/26 00:20:45;;;;;;;10.70;7.82;;;;;;;;;;5033030;28;20385;-81
2023/10/26 00:23:11;;;;;;;10.55;7.43;;;;;;;;;;5040920;28;20485;-93
2023/10/26 00:25:36;;;;;;;9.25;7.57;;;;;;;;;;5035262;28;20397;-94
2023/10/26 00:28:01;;;;;;;8.80;7.07;;;;;;;;;;5029029;28;20029;-92
2023/10/26 00:30:27;;;;;;;10.95;7.82;;;;;;;;;;5040160;28;20018;-94
2023/10/26 00:32:52;;;;;;;8.85;7.10;;;;;;;;;;5033418;28;20056;-93
2023/10/26 00:35:18;;;;;;;10.13;7.70;;;;;;;;;;5033158;28;20025;-92
2023/10/26 00:37:43;;;;;;;11.80;7.68;;;;;;;;;;5035653;28;20035;-94
2023/10/26 00:40:09;;;;;;;10.10;7.85;;;;;;;;;;5032345;28;20052;-87
2023/10/26 00:42:34;;;;;;;9.60;7.57;;;;;;;;;;5034842;28;20036;-92
2023/10/26 00:45:00;;;;;;;9.48;7.40;;;;;;;;;;5031829;28;20057;-93
2023/10/26 00:47:25;;;;;;;10.95;7.30;;;;;;;;;;5035158;28;20029;-92
2023/10/26 00:49:51;;;;;;;9.13;6.97;;;;;;;;;;5018164;28;20022;-93
2023/10/26 00:52:17;;;;;;;8.98;7.13;;;;;;;;;;5034515;28;20029;-93
2023/10/26 00:54:43;;;;;;;8.68;7.20;;;;;;;;;;5031896;28;20026;-91
2023/10/26 00:57:09;;;;;;;9.40;7.00;;;;;;;;;;5018055;28;20032;-92
2023/10/26 00:59:35;;;;;;;9.93;7.07;;;;;;;;;;5033069;28;20018;-92
2023/10/26 01:02:02;;;;;;;11.18;8.25;;;;;;;;;;5032166;28;20048;-92
2023/10/26 01:04:27;;;;;;;10.77;7.35;;;;;;;;;;5035759;28;20029;-93
2023/10/26 01:06:53;;;;;;;8.93;7.20;;;;;;;;;;5032139;28;20367;-92
2023/10/26 01:09:19;;;;;;;9.27;7.30;;;;;;;;;;5034202;28;20033;-92
2023/10/26 01:11:45;;;;;;;8.23;6.65;;;;;;;;;;5040362;28;20025;-92
2023/10/26 01:14:11;;;;;;;9.90;7.68;;;;;;;;;;5041937;28;20071;-91
2023/10/26 01:16:36;;;;;;;9.73;7.30;;;;;;;;;;5026999;28;20441;-92
2023/10/26 01:19:03;;;;;;;12.13;9.13;;;;;;;;;;5038334;28;20037;-93
2023/10/26 01:21:30;;;;;;;9.45;7.20;;;;;;;;;;5035450;28;20120;-93
2023/10/26 01:23:55;;;;;;;11.57;8.63;;;;;;;;;;5047024;28;20048;-92
2023/10/26 01:26:21;;;;;;;10.00;7.57;;;;;;;;;;5034440;28;20026;-91
2023/10/26 01:28:47;;;;;;;14.23;9.13;;;;;;;;;;5032268;28;20478;-91
2023/10/26 01:31:19;;;;;;;9.90;7.57;;;;;;;;;;5036458;28;20101;-92
2023/10/26 01:33:45;;;;;;;11.77;8.20;;;;;;;;;;5041081;28;20048;-88
2023/10/26 01:36:11;;;;;;;12.10;8.30;;;;;;;;;;5048332;28;20033;-92
2023/10/26 01:38:36;;;;;;;10.32;7.57;;;;;;;;;;5032458;28;20083;-92
2023/10/26 01:41:02;;;;;;;10.38;7.80;;;;;;;;;;5031593;28;20420;-93
2023/10/26 01:43:28;;;;;;;10.02;7.85;;;;;;;;;;5034118;28;20037;-87
2023/10/26 01:45:53;;;;;;;9.75;7.95;;;;;;;;;;5031735;28;20036;-88
2023/10/26 01:48:18;;;;;;;10.32;7.95;;;;;;;;;;5029075;28;20029;-88
2023/10/26 01:50:44;;;;;;;10.00;7.72;;;;;;;;;;5028406;28;20033;-88
2023/10/26 01:53:09;;;;;;;10.38;7.85;;;;;;;;;;5032753;28;20056;-88
2023/10/26 01:55:34;;;;;;;11.25;7.70;;;;;;;;;;5029650;28;20029;-87
2023/10/26 01:58:00;;;;;;;10.27;7.55;;;;;;;;;;5028454;28;20025;-88
2023/10/26 02:00:25;;;;;;;10.38;7.88;;;;;;;;;;5029899;28;20454;-88
2023/10/26 02:02:51;;;;;;;9.27;7.55;;;;;;;;;;5027996;28;20033;-87
2023/10/26 02:05:16;;;;;;;10.38;7.93;;;;;;;;;;5032975;28;20395;-88
2023/10/26 02:07:42;;;;;;;9.02;7.25;;;;;;;;;;5024469;28;20022;-88
2023/10/26 02:10:08;;;;;;;10.10;7.65;;;;;;;;;;5030460;28;20021;-89
2023/10/26 02:12:33;;;;;;;10.32;7.72;;;;;;;;;;5032658;28;20111;-88
2023/10/26 02:14:59;;;;;;;9.43;7.40;;;;;;;;;;5033471;28;20592;-88
2023/10/26 02:17:24;;;;;;;9.55;7.32;;;;;;;;;;5030952;28;20052;-88
2023/10/26 02:19:49;;;;;;;10.15;7.78;;;;;;;;;;5025826;28;20017;-87
2023/10/26 02:22:15;;;;;;;10.73;8.20;;;;;;;;;;5029408;28;20091;-87
2023/10/26 02:24:43;;;;;;;9.85;7.70;;;;;;;;;;5032637;28;20377;-88
2023/10/26 02:27:08;;;;;;;10.05;7.28;;;;;;;;;;5027982;28;20052;-88
2023/10/26 02:29:34;;;;;;;9.27;7.20;;;;;;;;;;5031099;28;20025;-88
2023/10/26 02:31:59;;;;;;;9.38;8.00;;;;;;;;;;5026354;28;20493;-88
2023/10/26 02:34:24;;;;;;;9.25;7.68;;;;;;;;;;5029955;28;20057;-88
2023/10/26 02:36:50;;;;;;;9.82;7.15;;;;;;;;;;5029441;28;20029;-88
2023/10/26 02:39:16;;;;;;;11.60;7.72;;;;;;;;;;5025166;28;20390;-88
2023/10/26 02:41:41;;;;;;;10.82;7.75;;;;;;;;;;5030969;28;20059;-88
2023/10/26 02:44:06;;;;;;;12.50;7.85;;;;;;;;;;5030169;28;20022;-88
2023/10/26 02:46:32;;;;;;;11.50;8.20;;;;;;;;;;5030134;28;20044;-88
2023/10/26 02:48:57;;;;;;;11.60;8.38;;;;;;;;;;5023235;28;20033;-87
2023/10/26 02:51:24;;;;;;;10.07;7.90;;;;;;;;;;5032409;28;20082;-88
2023/10/26 02:53:49;;;;;;;10.40;8.00;;;;;;;;;;5028144;28;20112;-83
2023/10/26 02:56:14;;;;;;;10.35;7.95;;;;;;;;;;5030382;28;20553;-84
2023/10/26 02:58:40;;;;;;;10.27;7.80;;;;;;;;;;5035656;28;20120;-83
2023/10/26 03:01:05;;;;;;;11.10;8.27;;;;;;;;;;5030823;28;20108;-83
2023/10/26 03:03:31;;;;;;;11.52;8.70;;;;;;;;;;5032108;28;20037;-83
2023/10/26 03:05:58;;;;;;;11.18;8.50;;;;;;;;;;5031164;28;20033;-83
2023/10/26 03:08:24;;;;;;;10.60;8.40;;;;;;;;;;5024090;28;20520;-83
2023/10/26 03:10:49;;;;;;;13.70;9.07;;;;;;;;;;5029082;28;20033;-83
2023/10/26 03:13:15;;;;;;;11.75;8.80;;;;;;;;;;5038991;28;20040;-83
2023/10/26 03:15:40;;;;;;;12.13;9.63;;;;;;;;;;5023250;28;20057;-83
2023/10/26 03:18:06;;;;;;;12.57;9.40;;;;;;;;;;5030195;28;20041;-84
2023/10/26 03:20:32;;;;;;;13.65;9.15;;;;;;;;;;5031209;28;20013;-83
2023/10/26 03:22:58;;;;;;;11.35;8.40;;;;;;;;;;5025675;28;20112;-83
2023/10/26 03:25:23;;;;;;;10.90;8.32;;;;;;;;;;5025531;28;20120;-83
2023/10/26 03:27:49;;;;;;;11.13;8.38;;;;;;;;;;5025294;28;20036;-83
2023/10/26 03:30:15;;;;;;;11.45;8.60;;;;;;;;;;5023815;28;20037;-83
2023/10/26 03:32:41;;;;;;;11.52;8.95;;;;;;;;;;5025773;28;20060;-83
2023/10/26 03:35:08;;;;;;;11.48;9.13;;;;;;;;;;5028362;28;20057;-83
2023/10/26 03:37:34;;;;;;;12.55;8.93;;;;;;;;;;5024670;28;20036;-83
2023/10/26 03:40:00;;;;;;;11.80;8.57;;;;;;;;;;5028861;28;20116;-83
2023/10/26 03:42:25;;;;;;;11.25;9.07;;;;;;;;;;5032745;28;20104;-83
2023/10/26 03:44:50;;;;;;;13.45;8.93;;;;;;;;;;5030558;28;20067;-83
2023/10/26 03:47:18;;;;;;;12.18;8.18;;;;;;;;;;5031529;28;20031;-83
2023/10/26 03:49:44;;;;;;;10.63;8.23;;;;;;;;;;5033254;28;20039;-83
2023/10/26 03:52:09;;;;;;;11.68;8.63;;;;;;;;;;5032095;28;20474;-83
2023/10/26 03:54:35;;;;;;;10.70;7.88;;;;;;;;;;5029456;28;20022;-83
2023/10/26 03:57:00;;;;;;;10.05;8.02;;;;;;;;;;5030859;28;20408;-84
2023/10/26 03:59:26;;;;;;;10.43;8.00;;;;;;;;;;5030485;28;20025;-83
2023/10/26 04:01:51;;;;;;;12.73;8.25;;;;;;;;;;5026857;28;20367;-83
2023/10/26 04:04:16;;;;;;;10.27;7.97;;;;;;;;;;5039941;28;20044;-81
2023/10/26 04:06:42;;;;;;;11.45;8.82;;;;;;;;;;5029918;28;20032;-80
2023/10/26 04:09:08;;;;;;;11.35;8.82;;;;;;;;;;5025549;28;20571;-82
2023/10/26 04:11:33;;;;;;;13.13;8.90;;;;;;;;;;5031296;28;20032;-81
2023/10/26 04:13:59;;;;;;;10.93;8.20;;;;;;;;;;5034263;28;20116;-81
2023/10/26 04:16:25;;;;;;;11.43;8.52;;;;;;;;;;5034526;28;20435;-81
2023/10/26 04:18:50;;;;;;;9.65;7.45;;;;;;;;;;5030408;28;20041;-81
2023/10/26 04:21:16;;;;;;;10.30;7.97;;;;;;;;;;5033505;28;20393;-81
2023/10/26 04:23:41;;;;;;;10.52;8.25;;;;;;;;;;5029846;28;20033;-82
2023/10/26 04:26:09;;;;;;;9.70;7.45;;;;;;;;;;5028727;28;20034;-81
2023/10/26 04:28:35;;;;;;;10.25;7.75;;;;;;;;;;5031427;28;20539;-81
2023/10/26 04:31:00;;;;;;;10.25;7.80;;;;;;;;;;5033224;28;20390;-83
2023/10/26 04:33:26;;;;;;;9.82;7.68;;;;;;;;;;5032580;28;20025;-82
2023/10/26 04:35:51;;;;;;;12.07;8.30;;;;;;;;;;5035008;28;20441;-81
2023/10/26 04:38:17;;;;;;;11.98;8.52;;;;;;;;;;5045319;28;20053;-83
2023/10/26 04:40:43;;;;;;;13.32;10.15;;;;;;;;;;5024719;28;20087;-82
2023/10/26 04:43:09;;;;;;;14.18;10.20;;;;;;;;;;5027288;28;20064;-82
2023/10/26 04:45:34;;;;;;;13.85;10.27;;;;;;;;;;5024080;28;20099;-81
2023/10/26 04:48:02;;;;;;;37.83;11.60;;;;;;;;;;5028146;28;20029;-81
2023/10/26 04:50:30;;;;;;;15.55;11.50;;;;;;;;;;5040650;28;20413;-81
2023/10/26 04:52:55;;;;;;;12.35;9.75;;;;;;;;;;5022531;28;20490;-81
2023/10/26 04:55:21;;;;;;;12.48;9.45;;;;;;;;;;5030472;28;20029;-82
2023/10/26 04:57:47;;;;;;;12.18;9.48;;;;;;;;;;5026757;28;20511;-82
2023/10/26 05:00:12;;;;;;;14.43;9.63;;;;;;;;;;5025075;28;20021;-81
2023/10/26 05:02:40;;;;;;;12.75;9.63;;;;;;;;;;5035639;28;20057;-81
2023/10/26 05:05:09;;;;;;;11.85;9.15;;;;;;;;;;5027369;28;20037;-82
2023/10/26 05:07:34;;;;;;;11.23;8.95;;;;;;;;;;5020328;28;20504;-81
2023/10/26 05:10:00;;;;;;;11.80;9.38;;;;;;;;;;5024278;28;20029;-82
2023/10/26 05:12:26;;;;;;;12.20;9.98;;;;;;;;;;5033421;28;20040;-80
2023/10/26 05:14:51;;;;;;;11.98;9.32;;;;;;;;;;5032191;28;20669;-80
2023/10/26 05:17:17;;;;;;;12.05;9.32;;;;;;;;;;5032129;28;20033;-80
2023/10/26 05:19:42;;;;;;;12.10;9.43;;;;;;;;;;5029433;28;20455;-81
2023/10/26 05:22:09;;;;;;;11.75;8.80;;;;;;;;;;5027906;28;20116;-81
2023/10/26 05:24:38;;;;;;;12.02;8.80;;;;;;;;;;5031026;28;20371;-88
2023/10/26 05:27:04;;;;;;;11.60;8.82;;;;;;;;;;5032195;28;20025;-87
2023/10/26 05:29:30;;;;;;;11.82;9.30;;;;;;;;;;5031212;28;20028;-81
2023/10/26 05:31:55;;;;;;;12.52;9.38;;;;;;;;;;5027503;28;20029;-82
2023/10/26 05:34:24;;;;;;;11.52;9.27;;;;;;;;;;5031961;28;20025;-91
2023/10/26 05:36:49;;;;;;;12.05;9.35;;;;;;;;;;5034268;28;20029;-92
2023/10/26 05:39:15;;;;;;;13.13;10.10;;;;;;;;;;5026425;28;20066;-92
2023/10/26 05:41:40;;;;;;;12.40;9.55;;;;;;;;;;5034389;28;20037;-92
2023/10/26 05:44:06;;;;;;;12.98;9.65;;;;;;;;;;5027453;28;20036;-93
2023/10/26 05:46:32;;;;;;;12.93;9.70;;;;;;;;;;5033365;28;20120;-93
2023/10/26 05:48:57;;;;;;;13.02;10.18;;;;;;;;;;5033411;28;20481;-93
2023/10/26 05:51:22;;;;;;;11.55;9.25;;;;;;;;;;5028547;28;20021;-92
2023/10/26 05:53:48;;;;;;;22.98;11.10;;;;;;;;;;5029734;28;20053;-93
2023/10/26 05:56:13;;;;;;;13.50;9.90;;;;;;;;;;5029982;28;20091;-92
2023/10/26 05:58:39;;;;;;;14.30;9.65;;;;;;;;;;5032710;28;20036;-93
2023/10/26 06:01:04;;;;;;;12.73;9.68;;;;;;;;;;5032023;28;20032;-92
2023/10/26 06:03:30;;;;;;;13.40;10.10;;;;;;;;;;5025332;28;20037;-92
2023/10/26 06:06:00;;;;;;;12.60;9.40;;;;;;;;;;5035861;28;20029;-93
2023/10/26 06:08:25;;;;;;;13.55;9.88;;;;;;;;;;5031414;28;20052;-92
2023/10/26 06:10:51;;;;;;;14.23;10.45;;;;;;;;;;5033773;28;20072;-93
2023/10/26 06:13:17;;;;;;;14.13;10.50;;;;;;;;;;5031950;28;20134;-92
2023/10/26 06:15:42;;;;;;;13.13;9.88;;;;;;;;;;5027698;28;20025;-92
2023/10/26 06:18:07;;;;;;;13.38;9.93;;;;;;;;;;5031784;28;20063;-93
2023/10/26 06:20:33;;;;;;;13.18;9.90;;;;;;;;;;5028402;28;20522;-92
2023/10/26 06:22:59;;;;;;;13.68;9.80;;;;;;;;;;5027569;28;20108;-91
2023/10/26 06:25:28;;;;;;;13.52;9.68;;;;;;;;;;5035134;28;20037;-94
2023/10/26 06:27:54;;;;;;;13.77;10.18;;;;;;;;;;5032248;28;20029;-92
2023/10/26 06:30:20;;;;;;;13.43;9.38;;;;;;;;;;5031865;28;20044;-93
2023/10/26 06:32:45;;;;;;;14.93;10.50;;;;;;;;;;5032201;28;20497;-81
2023/10/26 06:35:11;;;;;;;14.23;9.65;;;;;;;;;;5037230;28;20074;-81
2023/10/26 06:37:37;;;;;;;12.93;9.40;;;;;;;;;;5033179;28;20123;-81
2023/10/26 06:40:04;;;;;;;21.27;10.23;;;;;;;;;;5030141;28;20116;-80
2023/10/26 06:42:29;;;;;;;14.85;10.82;;;;;;;;;;5029351;28;20040;-81
2023/10/26 06:44:54;;;;;;;11.63;8.90;;;;;;;;;;5030446;28;20029;-82
2023/10/26 06:47:20;;;;;;;11.52;8.60;;;;;;;;;;5028482;28;20029;-80
2023/10/26 06:49:46;;;;;;;12.38;9.45;;;;;;;;;;5028913;28;20022;-81
2023/10/26 06:52:11;;;;;;;12.45;9.07;;;;;;;;;;5030003;28;20025;-82
2023/10/26 06:54:36;;;;;;;11.13;8.80;;;;;;;;;;5032375;28;20126;-81
2023/10/26 06:57:02;;;;;;;12.38;8.93;;;;;;;;;;5029519;28;20037;-81
2023/10/26 06:59:31;;;;;;;11.68;8.88;;;;;;;;;;5033233;28;20027;-81
2023/10/26 07:01:57;;;;;;;11.52;8.57;;;;;;;;;;5031912;28;20040;-81
2023/10/26 07:04:22;;;;;;;12.98;9.73;;;;;;;;;;5028572;28;20108;-81
2023/10/26 07:06:49;;;;;;;12.43;8.52;;;;;;;;;;5032397;28;20156;-81
2023/10/26 07:09:15;;;;;;;12.10;8.93;;;;;;;;;;5030271;28;20034;-80
2023/10/26 07:11:43;;;;;;;13.68;10.25;;;;;;;;;;5031123;28;20047;-81
2023/10/26 07:14:09;;;;;;;12.77;9.20;;;;;;;;;;5045622;28;20124;-81
2023/10/26 07:16:34;;;;;;;13.40;9.70;;;;;;;;;;5032774;28;20108;-81
2023/10/26 07:19:01;;;;;;;13.63;9.70;;;;;;;;;;5029610;28;20374;-80
2023/10/26 07:21:27;;;;;;;13.50;9.63;;;;;;;;;;5042691;28;20381;-81
2023/10/26 07:23:53;;;;;;;14.63;9.43;;;;;;;;;;5042773;28;20116;-80
2023/10/26 07:26:18;;;;;;;13.00;9.07;;;;;;;;;;5031351;28;20466;-81
2023/10/26 07:28:44;;;;;;;14.40;9.93;;;;;;;;;;5029871;28;20080;-81
2023/10/26 07:31:17;;;;;;;14.35;9.98;;;;;;;;;;5031292;28;20453;-81
2023/10/26 07:33:43;;;;;;;14.60;9.77;;;;;;;;;;5029693;28;20029;-80
2023/10/26 07:36:08;;;;;;;15.57;10.25;;;;;;;;;;5031442;28;20083;-81
2023/10/26 07:38:34;;;;;;;18.27;11.63;;;;;;;;;;5029043;28;20030;-80
2023/10/26 07:41:03;;;;;;;16.42;11.48;;;;;;;;;;5030099;28;20029;-81
2023/10/26 07:43:28;;;;;;;19.35;11.57;;;;;;;;;;5027278;28;20037;-90
2023/10/26 07:45:57;;;;;;;15.27;9.93;;;;;;;;;;5032178;28;20123;-92
2023/10/26 07:48:24;;;;;;;16.27;11.25;;;;;;;;;;5028998;28;20030;-94
2023/10/26 07:50:50;;;;;;;16.42;10.82;;;;;;;;;;5031532;28;20021;-93
2023/10/26 07:53:16;;;;;;;16.58;10.85;;;;;;;;;;5030915;28;20508;-87
2023/10/26 07:55:41;;;;;;;17.75;11.40;;;;;;;;;;5042281;28;20017;-87
2023/10/26 07:58:07;;;;;;;16.70;10.25;;;;;;;;;;5032169;28;20044;-87
2023/10/26 08:00:32;;;;;;;18.17;11.20;;;;;;;;;;5025462;28;20395;-88
2023/10/26 08:02:59;;;;;;;15.40;10.13;;;;;;;;;;5031763;28;20033;-87
2023/10/26 08:05:24;;;;;;;16.25;10.05;;;;;;;;;;5030714;28;20030;-87
2023/10/26 08:07:50;;;;;;;14.65;9.70;;;;;;;;;;5031064;28;20033;-87
2023/10/26 08:10:15;;;;;;;15.77;10.07;;;;;;;;;;5031187;28;20436;-87
2023/10/26 08:12:40;;;;;;;18.25;10.45;;;;;;;;;;5023720;28;20021;-87
2023/10/26 08:15:07;;;;;;;18.73;10.55;;;;;;;;;;5030848;28;20043;-87
2023/10/26 08:17:35;;;;;;;15.88;10.82;;;;;;;;;;5031213;28;20021;-88
2023/10/26 08:20:01;;;;;;;16.63;10.30;;;;;;;;;;5030266;28;20045;-88
2023/10/26 08:22:27;;;;;;;15.98;9.48;;;;;;;;;;5032324;28;20032;-87
2023/10/26 08:24:53;;;;;;;17.83;10.80;;;;;;;;;;5028072;28;20053;-88
2023/10/26 08:27:18;;;;;;;17.45;10.57;;;;;;;;;;5039389;28;20061;-88
2023/10/26 08:29:44;;;;;;;16.17;9.93;;;;;;;;;;5035585;28;20022;-87
2023/10/26 08:32:09;;;;;;;15.52;9.23;;;;;;;;;;5033565;28;20075;-88
2023/10/26 08:34:34;;;;;;;15.13;9.70;;;;;;;;;;5034576;28;20020;-88
2023/10/26 08:37:00;;;;;;;13.40;8.45;;;;;;;;;;5033830;28;20393;-88
2023/10/26 08:39:26;;;;;;;15.88;8.50;;;;;;;;;;5032888;28;20059;-89
2023/10/26 08:41:51;;;;;;;14.40;8.40;;;;;;;;;;5036301;28;20034;-87
2023/10/26 08:44:17;;;;;;;15.18;8.95;;;;;;;;;;5035776;28;20444;-89
2023/10/26 08:46:50;;;;;;;13.23;8.30;;;;;;;;;;5032116;28;20032;-89
2023/10/26 08:49:16;;;;;;;;;;;;;;;;;;5025744;28;20033;-88
2023/10/26 08:51:41;;;;;;;14.13;8.48;;;;;;;;;;5032248;28;20293;-88
2023/10/26 08:54:07;;;;;;;15.48;9.43;;;;;;;;;;5027774;28;20374;-94
2023/10/26 08:56:32;;;;;;;12.77;8.20;;;;;;;;;;5049875;28;20029;-94
2023/10/26 08:58:59;;;;;;;12.07;7.82;;;;;;;;;;5035881;28;20059;-93
2023/10/26 09:01:24;;;;;;;15.00;8.57;;;;;;;;;;5035130;28;20026;-91
2023/10/26 09:03:50;;;;;;;15.40;8.00;;;;;;;;;;5032264;28;20036;-87
2023/10/26 09:06:15;;;;;;;12.68;7.72;;;;;;;;;;5039971;28;20101;-89
2023/10/26 09:08:41;;;;;;;13.90;8.60;;;;;;;;;;5034602;28;20029;-89
2023/10/26 09:11:22;;;;;;;15.63;8.90;;;;;;;;;;5034858;28;20401;-93
2023/10/26 09:13:50;;;;;;;15.77;9.38;;;;;;;;;;5028102;28;20022;-81
2023/10/26 09:16:15;;;;;;;15.55;9.07;;;;;;;;;;5036352;28;20056;-80
2023/10/26 09:18:48;;;;;;;14.80;9.40;;;;;;;;;;5031395;28;20392;-81
2023/10/26 09:21:16;;;;;;;15.40;9.65;;;;;;;;;;5034256;28;20529;-80
2023/10/26 09:23:42;;;;;;;14.15;9.73;;;;;;;;;;5034699;28;20033;-84
2023/10/26 09:26:09;;;;;;;13.52;8.95;;;;;;;;;;5032917;28;20025;-83
2023/10/26 09:28:56;;;;;;;15.00;9.18;;;;;;;;;;5034448;28;20099;-82
2023/10/26 09:31:24;;;;;;;16.38;9.60;;;;;;;;;;5032210;28;20049;-82
2023/10/26 09:33:50;;;;;;;16.40;10.15;;;;;;;;;;5040103;28;20022;-84
2023/10/26 09:36:18;;;;;;;16.73;10.38;;;;;;;;;;5028803;28;20041;-82
2023/10/26 09:38:44;;;;;;;17.33;10.82;;;;;;;;;;5044978;28;20040;-82
2023/10/26 09:41:16;;;;;;;16.48;10.23;;;;;;;;;;5033244;28;20025;-82
2023/10/26 09:43:42;;;;;;;16.55;10.60;;;;;;;;;;5034007;28;20147;-83
2023/10/26 09:46:08;;;;;;;17.60;10.68;;;;;;;;;;5032984;28;20116;-83
2023/10/26 09:48:34;;;;;;;17.58;10.77;;;;;;;;;;5033988;28;20029;-83
2023/10/26 09:51:04;;;;;;;15.73;9.98;;;;;;;;;;5035687;28;20030;-81
2023/10/26 09:53:38;;;;;;;18.20;10.82;;;;;;;;;;5026725;28;20029;-82
2023/10/26 09:56:05;;;;;;;16.35;10.38;;;;;;;;;;5028474;28;20492;-81
2023/10/26 09:58:40;;;;;;;18.23;11.15;;;;;;;;;;5026678;28;20031;-81
2023/10/26 10:01:36;;;;;;;16.50;10.57;;;;;;;;;;5030307;28;20097;-81
2023/10/26 10:04:03;;;;;;;15.75;10.35;;;;;;;;;;5031558;28;20066;-80
2023/10/26 10:06:58;;;;;;;16.58;10.98;;;;;;;;;;5034081;28;20118;-81
2023/10/26 10:09:27;;;;;;;15.77;9.93;;;;;;;;;;5023063;28;20061;-80
2023/10/26 10:12:08;;;;;;;17.95;11.07;;;;;;;;;;5031877;28;20389;-80
2023/10/26 10:15:01;;;;;;;14.88;9.80;;;;;;;;;;5032908;28;20021;-81
2023/10/26 10:17:45;;;;;;;15.40;9.75;;;;;;;;;;5027246;28;20041;-82
2023/10/26 10:20:19;;;;;;;15.90;9.23;;;;;;;;;;5037362;28;20033;-80
2023/10/26 10:22:47;;;;;;;15.25;10.07;;;;;;;;;;5033633;28;20076;-83
2023/10/26 10:25:16;;;;;;;16.27;10.63;;;;;;;;;;5033038;28;20029;-95
2023/10/26 10:28:02;;;;;;;16.15;10.45;;;;;;;;;;5032143;28;20536;-94
2023/10/26 10:30:46;;;;;;;13.90;10.02;;;;;;;;;;5034405;28;20413;-95
2023/10/26 10:33:19;;;;;;;14.38;9.13;;;;;;;;;;5032967;28;20045;-94
2023/10/26 10:35:51;;;;;;;14.77;9.77;;;;;;;;;;5036476;28;20029;-92
2023/10/26 10:38:18;;;;;;;14.07;9.05;;;;;;;;;;5039734;28;20033;-93
2023/10/26 10:40:55;;;;;;;15.63;10.30;;;;;;;;;;5029600;28;20014;-93
2023/10/26 10:43:45;;;;;;;15.23;9.90;;;;;;;;;;5035788;28;20048;-94
2023/10/26 10:46:13;;;;;;;15.68;10.38;;;;;;;;;;5034580;28;20029;-93
2023/10/26 10:48:54;;;;;;;15.32;9.93;;;;;;;;;;5052056;28;20028;-93
2023/10/26 10:51:19;;;;;;;13.40;9.20;;;;;;;;;;5037046;28;20026;-91
2023/10/26 10:53:49;;;;;;;13.52;8.80;;;;;;;;;;5035187;28;20025;-94
2023/10/26 10:56:15;;;;;;;13.15;9.00;;;;;;;;;;5031626;28;20043;-91
2023/10/26 10:58:40;;;;;;;15.95;9.90;;;;;;;;;;5035301;28;20033;-94
2023/10/26 11:01:05;;;;;;;15.63;9.27;;;;;;;;;;5030543;28;20037;-93
2023/10/26 11:03:32;;;;;;;12.73;8.88;;;;;;;;;;5035296;28;20033;-94
2023/10/26 11:05:58;;;;;;;14.70;9.27;;;;;;;;;;5052531;28;20048;-93
2023/10/26 11:08:23;;;;;;;13.95;9.57;;;;;;;;;;5034608;28;20038;-94
2023/10/26 11:10:49;;;;;;;14.30;9.82;;;;;;;;;;5031885;28;20060;-88
2023/10/26 11:13:21;;;;;;;15.68;10.02;;;;;;;;;;5047142;28;20120;-87
2023/10/26 11:15:47;;;;;;;15.55;9.68;;;;;;;;;;5032722;28;20029;-87
2023/10/26 11:18:13;;;;;;;13.50;9.20;;;;;;;;;;5031728;28;20029;-87
2023/10/26 11:20:41;;;;;;;14.65;9.90;;;;;;;;;;5032235;28;20104;-88
2023/10/26 11:23:08;;;;;;;13.68;8.88;;;;;;;;;;5031656;28;20030;-88
2023/10/26 11:25:33;;;;;;;12.90;8.82;;;;;;;;;;5032177;28;20470;-88
2023/10/26 11:28:00;;;;;;;13.23;9.60;;;;;;;;;;5030897;28;20144;-87
2023/10/26 11:30:25;;;;;;;15.65;9.75;;;;;;;;;;5031507;28;20478;-89
2023/10/26 11:32:51;;;;;;;16.23;8.90;;;;;;;;;;5032708;28;20025;-88
2023/10/26 11:35:16;;;;;;;15.30;9.63;;;;;;;;;;5031704;28;20432;-87
2023/10/26 11:37:47;;;;;;;14.80;9.77;;;;;;;;;;5032336;28;20048;-83
2023/10/26 11:40:14;;;;;;;14.90;9.43;;;;;;;;;;5038345;28;20022;-83
2023/10/26 11:42:52;;;;;;;18.67;10.15;;;;;;;;;;5032840;28;20029;-95
2023/10/26 11:45:20;;;;;;;13.95;9.25;;;;;;;;;;5034941;28;20022;-93
2023/10/26 11:47:58;;;;;;;15.32;10.27;;;;;;;;;;5036021;28;20030;-92
2023/10/26 11:50:26;;;;;;;14.70;10.00;;;;;;;;;;5037445;28;20049;-94
2023/10/26 11:52:54;;;;;;;17.65;10.98;;;;;;;;;;5030766;28;20492;-94
2023/10/26 11:55:21;;;;;;;16.13;10.02;;;;;;;;;;5032749;28;20044;-94
2023/10/26 11:57:47;;;;;;;17.52;10.30;;;;;;;;;;5032701;28;20021;-94
2023/10/26 12:00:14;;;;;;;18.02;10.65;;;;;;;;;;5035902;28;20014;-93
2023/10/26 12:02:40;;;;;;;16.40;10.98;;;;;;;;;;5042326;28;20119;-93
2023/10/26 12:05:06;;;;;;;17.33;10.98;;;;;;;;;;5039879;28;20065;-93
2023/10/26 12:07:32;;;;;;;16.88;10.43;;;;;;;;;;5035871;28;20032;-92
2023/10/26 12:09:57;;;;;;;17.23;9.98;;;;;;;;;;5035892;28;20022;-93
2023/10/26 12:12:24;;;;;;;16.73;11.10;;;;;;;;;;5036764;28;20179;-93
2023/10/26 12:14:49;;;;;;;17.10;10.35;;;;;;;;;;5036227;28;20044;-89
2023/10/26 12:17:15;;;;;;;15.98;10.55;;;;;;;;;;5023314;28;20116;-88
2023/10/26 12:19:40;;;;;;;15.85;10.60;;;;;;;;;;5053280;28;20128;-93
2023/10/26 12:22:05;;;;;;;16.83;10.85;;;;;;;;;;5036053;28;20037;-94
2023/10/26 12:24:32;;;;;;;15.23;10.18;;;;;;;;;;5035794;28;20030;-93
2023/10/26 12:26:59;;;;;;;16.58;10.10;;;;;;;;;;5038805;28;20056;-94
2023/10/26 12:29:24;;;;;;;16.63;10.23;;;;;;;;;;5036264;28;20071;-92
2023/10/26 12:31:50;;;;;;;18.88;10.75;;;;;;;;;;5036558;28;20489;-94
2023/10/26 12:34:15;;;;;;;18.77;10.55;;;;;;;;;;5037323;28;20083;-93
2023/10/26 12:36:41;;;;;;;16.58;9.63;;;;;;;;;;5036012;28;20021;-93
2023/10/26 12:39:06;;;;;;;17.85;10.73;;;;;;;;;;5035819;28;20025;-93
2023/10/26 12:41:32;;;;;;;16.77;10.95;;;;;;;;;;5031064;28;20022;-94
2023/10/26 12:43:57;;;;;;;17.58;10.52;;;;;;;;;;5028278;28;20430;-94
2023/10/26 12:46:22;;;;;;;16.60;10.32;;;;;;;;;;5035818;28;20457;-92
2023/10/26 12:48:48;;;;;;;16.30;10.75;;;;;;;;;;5040194;28;20036;-93
2023/10/26 12:51:14;;;;;;;18.30;11.65;;;;;;;;;;5035636;28;20018;-93
2023/10/26 12:53:39;;;;;;;19.70;11.50;;;;;;;;;;5034827;28;20037;-81
2023/10/26 12:56:05;;;;;;;17.25;10.75;;;;;;;;;;5033240;28;20017;-82
2023/10/26 12:58:32;;;;;;;17.85;11.90;;;;;;;;;;5031807;28;20479;-82
2023/10/26 13:00:57;;;;;;;18.10;11.45;;;;;;;;;;5036518;28;20497;-81
2023/10/26 13:03:23;;;;;;;17.58;11.90;;;;;;;;;;5034912;28;20033;-81
2023/10/26 13:05:48;;;;;;;17.17;11.65;;;;;;;;;;5033439;28;20120;-81
2023/10/26 13:08:13;;;;;;;17.00;11.13;;;;;;;;;;5034032;28;20036;-82
2023/10/26 13:10:39;;;;;;;18.33;11.93;;;;;;;;;;5034687;28;20014;-81
2023/10/26 13:13:04;;;;;;;17.10;11.48;;;;;;;;;;5033084;28;20389;-94
2023/10/26 13:15:29;;;;;;;18.42;11.77;;;;;;;;;;5034858;28;20056;-92
2023/10/26 13:17:55;;;;;;;16.60;10.60;;;;;;;;;;5035418;28;20056;-93
2023/10/26 13:20:20;;;;;;;17.98;11.35;;;;;;;;;;5034610;28;20048;-93
2023/10/26 13:22:46;;;;;;;18.55;11.57;;;;;;;;;;5024941;28;20060;-93
2023/10/26 13:25:11;;;;;;;17.38;11.10;;;;;;;;;;5034090;28;20079;-93
2023/10/26 13:27:37;;;;;;;17.27;11.05;;;;;;;;;;5035746;28;20017;-93
2023/10/26 13:30:02;;;;;;;18.95;11.35;;;;;;;;;;5034986;28;20431;-94
2023/10/26 13:32:28;;;;;;;17.77;11.02;;;;;;;;;;5034772;28;20021;-93
2023/10/26 13:34:53;;;;;;;17.88;11.43;;;;;;;;;;5044490;28;20059;-94
2023/10/26 13:37:19;;;;;;;17.92;11.13;;;;;;;;;;5046139;28;20461;-87
2023/10/26 13:39:44;;;;;;;19.67;11.65;;;;;;;;;;5034352;28;20028;-87
2023/10/26 13:42:10;;;;;;;17.65;11.85;;;;;;;;;;5034605;28;20038;-87
2023/10/26 13:44:35;;;;;;;17.42;11.38;;;;;;;;;;5034396;28;20032;-87
2023/10/26 13:47:01;;;;;;;19.35;12.23;;;;;;;;;;5034032;28;20059;-87
2023/10/26 13:49:26;;;;;;;17.50;11.00;;;;;;;;;;5034469;28;20382;-87
2023/10/26 13:51:51;;;;;;;18.17;11.23;;;;;;;;;;5031324;28;20120;-83
2023/10/26 13:54:17;;;;;;;16.70;11.07;;;;;;;;;;5031787;28;20060;-84
2023/10/26 13:56:42;;;;;;;18.45;11.00;;;;;;;;;;5033708;28;20036;-84
2023/10/26 13:59:08;;;;;;;18.25;11.27;;;;;;;;;;5027564;28;20432;-83
2023/10/26 14:01:33;;;;;;;17.02;10.93;;;;;;;;;;5044627;28;20024;-83
2023/10/26 14:03:59;;;;;;;15.50;10.25;;;;;;;;;;5032897;28;20042;-84
2023/10/26 14:06:27;;;;;;;15.88;10.48;;;;;;;;;;5034043;28;20025;-84
2023/10/26 14:08:57;;;;;;;17.15;10.77;;;;;;;;;;5031930;28;20024;-81
2023/10/26 14:11:23;;;;;;;16.23;10.70;;;;;;;;;;5026867;28;20032;-81
2023/10/26 14:13:48;;;;;;;15.70;10.85;;;;;;;;;;5032637;28;20477;-87
2023/10/26 14:16:15;;;;;;;15.60;10.48;;;;;;;;;;5033537;28;20573;-86
2023/10/26 14:18:41;;;;;;;15.07;10.38;;;;;;;;;;5032394;28;20616;-87
2023/10/26 14:21:06;;;;;;;15.30;10.82;;;;;;;;;;5029281;28;20072;-86
2023/10/26 14:23:32;;;;;;;15.43;10.65;;;;;;;;;;5027537;28;20466;-87